Time;durP1;ratioP1;P1;durP2;ratioP2;P2;SDS_P1;SDS_P2;PMS_P1;PMS_P2;Temp;Humidity;BMP_temperature;BMP_pressure;BME280_temperature;BME280_humidity;BME280_pressure;Samples;Min_cycle;Max_cycle;Signal;HPM_P1;HPM_P2
2022/12/05 00:00:09;;;;;;;56.03;31.97;;;;;;;;;;4358859;32;20684;-82
2022/12/05 00:02:35;;;;;;;59.77;30.17;;;;;;;;;;4358471;32;20772;-81
2022/12/05 00:05:03;;;;;;;59.53;31.73;;;;;;;;;;4359268;32;20254;-80
2022/12/05 00:07:29;;;;;;;63.87;34.33;;;;;;;;;;4362576;32;20392;-80
2022/12/05 00:09:56;;;;;;;55.77;32.37;;;;;;;;;;4361023;32;20541;-83
2022/12/05 00:12:23;;;;;;;65.17;33.97;;;;;;;;;;4361870;32;20258;-94
2022/12/05 00:14:51;;;;;;;66.73;34.47;;;;;;;;;;4362346;32;20355;-80
2022/12/05 00:17:18;;;;;;;62.57;33.33;;;;;;;;;;4360553;32;20666;-82
2022/12/05 00:19:45;;;;;;;71.03;38.63;;;;;;;;;;4363668;32;20237;-96
2022/12/05 00:22:12;;;;;;;63.60;35.20;;;;;;;;;;4366758;32;20291;-81
2022/12/05 00:24:39;;;;;;;68.57;36.77;;;;;;;;;;4376784;32;20307;-96
2022/12/05 00:27:06;;;;;;;65.27;35.13;;;;;;;;;;4374906;32;20265;-80
2022/12/05 00:29:33;;;;;;;67.03;31.57;;;;;;;;;;4374800;32;20276;-80
2022/12/05 00:32:02;;;;;;;64.57;35.57;;;;;;;;;;4377271;32;20342;-87
2022/12/05 00:34:29;;;;;;;58.40;31.40;;;;;;;;;;4376808;32;20257;-87
2022/12/05 00:36:56;;;;;;;52.93;29.17;;;;;;;;;;4374676;32;20296;-81
2022/12/05 00:39:22;;;;;;;54.00;30.87;;;;;;;;;;4362976;32;20234;-81
2022/12/05 00:41:49;;;;;;;54.00;29.63;;;;;;;;;;4361105;32;20394;-82
2022/12/05 00:44:16;;;;;;;42.33;25.83;;;;;;;;;;4360434;32;20219;-88
2022/12/05 00:46:43;;;;;;;57.63;29.73;;;;;;;;;;4360033;32;20300;-94
2022/12/05 00:49:12;;;;;;;58.87;29.37;;;;;;;;;;4362740;32;20320;-86
2022/12/05 00:51:40;;;;;;;48.63;27.17;;;;;;;;;;4363489;32;20276;-80
2022/12/05 00:54:10;;;;;;;54.37;27.80;;;;;;;;;;4359552;32;20220;-81
2022/12/05 00:56:37;;;;;;;37.30;23.80;;;;;;;;;;4361096;32;20242;-82
2022/12/05 00:59:04;;;;;;;40.23;24.60;;;;;;;;;;4362575;32;20272;-84
2022/12/05 01:01:33;;;;;;;39.17;22.87;;;;;;;;;;4361231;32;20241;-95
2022/12/05 01:04:02;;;;;;;34.27;19.93;;;;;;;;;;4361844;32;20408;-80
2022/12/05 01:06:31;;;;;;;35.87;21.93;;;;;;;;;;4360529;32;20387;-80
2022/12/05 01:08:58;;;;;;;37.13;20.67;;;;;;;;;;4360867;32;20315;-82
2022/12/05 01:11:26;;;;;;;32.80;20.27;;;;;;;;;;4361171;32;20226;-80
2022/12/05 01:13:52;;;;;;;41.63;20.47;;;;;;;;;;4359607;32;20683;-86
2022/12/05 01:16:22;;;;;;;32.00;18.90;;;;;;;;;;4359933;32;20296;-81
2022/12/05 01:18:49;;;;;;;34.77;20.70;;;;;;;;;;4362124;32;20642;-81
2022/12/05 01:21:16;;;;;;;35.67;18.70;;;;;;;;;;4362381;32;20225;-81
2022/12/05 01:23:44;;;;;;;28.50;15.87;;;;;;;;;;4374581;32;20226;-82
2022/12/05 01:26:13;;;;;;;39.70;25.50;;;;;;;;;;4375408;32;20274;-81
2022/12/05 01:28:40;;;;;;;37.50;22.83;;;;;;;;;;4375839;32;20301;-79
2022/12/05 01:31:09;;;;;;;30.87;19.20;;;;;;;;;;4374898;32;20316;-82
2022/12/05 01:33:36;;;;;;;25.60;17.00;;;;;;;;;;4371392;32;20254;-91
2022/12/05 01:36:04;;;;;;;26.30;16.57;;;;;;;;;;4360545;32;20265;-95
2022/12/05 01:38:30;;;;;;;26.30;16.20;;;;;;;;;;4351195;32;20301;-87
2022/12/05 01:41:04;;;;;;;28.80;17.07;;;;;;;;;;4346646;33;20324;-83
2022/12/05 01:43:31;;;;;;;20.30;14.43;;;;;;;;;;4347097;33;20227;-83
2022/12/05 01:45:58;;;;;;;23.87;15.27;;;;;;;;;;4347928;33;20254;-81
2022/12/05 01:48:30;;;;;;;25.53;15.73;;;;;;;;;;4346415;33;20227;-81
2022/12/05 01:50:58;;;;;;;29.53;15.23;;;;;;;;;;4346476;33;20246;-81
2022/12/05 01:53:26;;;;;;;29.07;15.13;;;;;;;;;;4346259;33;20281;-81
2022/12/05 01:55:55;;;;;;;27.80;16.60;;;;;;;;;;4349457;33;20273;-81
2022/12/05 01:58:28;;;;;;;27.60;14.73;;;;;;;;;;4354757;33;20246;-80
2022/12/05 02:00:54;;;;;;;22.37;13.57;;;;;;;;;;4360770;33;20229;-80
2022/12/05 02:03:22;;;;;;;27.70;14.23;;;;;;;;;;4360365;33;20238;-81
2022/12/05 02:05:51;;;;;;;26.20;13.83;;;;;;;;;;4354261;33;20230;-80
2022/12/05 02:08:19;;;;;;;20.73;14.07;;;;;;;;;;4352133;32;20274;-80
2022/12/05 02:10:49;;;;;;;25.37;14.40;;;;;;;;;;4354813;33;20242;-87
2022/12/05 02:13:30;;;;;;;22.60;14.33;;;;;;;;;;4353837;33;20214;-81
2022/12/05 02:16:03;;;;;;;22.30;14.50;;;;;;;;;;4349861;33;20227;-82
2022/12/05 02:18:45;;;;;;;32.93;17.03;;;;;;;;;;4349843;33;20255;-81
2022/12/05 02:21:55;;;;;;;27.17;16.90;;;;;;;;;;4347285;33;20300;-82
2022/12/05 02:24:51;;;;;;;26.33;16.43;;;;;;;;;;4349843;33;20265;-85
2022/12/05 02:27:39;;;;;;;32.90;15.27;;;;;;;;;;4347294;33;20247;-83
2022/12/05 02:30:10;;;;;;;25.03;18.00;;;;;;;;;;4354625;33;20215;-82
2022/12/05 02:32:52;;;;;;;32.87;19.83;;;;;;;;;;4363267;33;20218;-87
2022/12/05 02:35:33;;;;;;;40.70;21.27;;;;;;;;;;4365261;33;20290;-84
2022/12/05 02:38:09;;;;;;;37.33;22.40;;;;;;;;;;4365201;33;20300;-93
2022/12/05 02:40:43;;;;;;;58.67;25.77;;;;;;;;;;4366229;33;20319;-87
2022/12/05 02:43:16;;;;;;;31.60;21.37;;;;;;;;;;4365399;33;20342;-82
2022/12/05 02:45:49;;;;;;;39.90;22.13;;;;;;;;;;4364372;33;20254;-82
2022/12/05 02:48:17;;;;;;;45.47;25.00;;;;;;;;;;4361919;33;20299;-91
2022/12/05 02:50:47;;;;;;;38.57;24.97;;;;;;;;;;4365668;33;20644;-81
2022/12/05 02:53:16;;;;;;;44.33;23.63;;;;;;;;;;4360192;32;20214;-83
2022/12/05 02:55:44;;;;;;;46.13;26.03;;;;;;;;;;4363169;33;20887;-87
2022/12/05 02:58:17;;;;;;;48.60;26.13;;;;;;;;;;4377768;27;20276;-82
2022/12/05 03:00:49;;;;;;;45.07;25.80;;;;;;;;;;4379782;32;20218;-83
2022/12/05 03:03:19;;;;;;;43.07;25.00;;;;;;;;;;4380182;32;20238;-81
2022/12/05 03:05:54;;;;;;;45.67;24.97;;;;;;;;;;4383679;32;20221;-91
2022/12/05 03:08:26;;;;;;;36.00;25.10;;;;;;;;;;4381298;32;20560;-83
2022/12/05 03:10:53;;;;;;;43.70;25.87;;;;;;;;;;4394825;27;20269;-90
2022/12/05 03:13:28;;;;;;;41.67;24.70;;;;;;;;;;4393895;32;20278;-82
2022/12/05 03:16:01;;;;;;;39.20;24.80;;;;;;;;;;4385589;32;20280;-82
2022/12/05 03:18:31;;;;;;;48.80;25.77;;;;;;;;;;4384736;32;20218;-81
2022/12/05 03:21:01;;;;;;;49.17;25.40;;;;;;;;;;4385790;32;20238;-81
2022/12/05 03:23:31;;;;;;;37.47;24.47;;;;;;;;;;4384719;32;20618;-94
2022/12/05 03:26:10;;;;;;;42.90;24.80;;;;;;;;;;4394375;32;20329;-81
2022/12/05 03:28:49;;;;;;;37.33;22.87;;;;;;;;;;4383743;32;20247;-93
2022/12/05 03:31:22;;;;;;;41.73;24.03;;;;;;;;;;4393888;27;20242;-87
2022/12/05 03:33:51;;;;;;;39.77;24.87;;;;;;;;;;4396584;32;20214;-80
2022/12/05 03:36:23;;;;;;;44.50;25.57;;;;;;;;;;4396218;32;20637;-80
2022/12/05 03:38:54;;;;;;;41.50;25.30;;;;;;;;;;4396302;32;20248;-80
2022/12/05 03:41:25;;;;;;;42.27;25.50;;;;;;;;;;4390466;32;20226;-80
2022/12/05 03:43:57;;;;;;;39.97;25.27;;;;;;;;;;4392039;32;20209;-96
2022/12/05 03:46:30;;;;;;;43.47;24.33;;;;;;;;;;4390316;32;20333;-82
2022/12/05 03:49:03;;;;;;;34.97;24.10;;;;;;;;;;4387242;32;20233;-79
2022/12/05 03:51:35;;;;;;;43.70;27.07;;;;;;;;;;4376546;32;20736;-79
2022/12/05 03:54:06;;;;;;;53.10;31.17;;;;;;;;;;4377630;32;20662;-82
2022/12/05 03:56:38;;;;;;;57.83;32.93;;;;;;;;;;4390429;32;20329;-85
2022/12/05 03:59:12;;;;;;;64.10;34.23;;;;;;;;;;4390732;32;20327;-84
2022/12/05 04:01:41;;;;;;;58.40;29.70;;;;;;;;;;4390636;32;20628;-80
2022/12/05 04:04:13;;;;;;;54.37;28.47;;;;;;;;;;4392581;32;20237;-94
2022/12/05 04:06:45;;;;;;;42.80;28.37;;;;;;;;;;4394023;32;20272;-82
2022/12/05 04:09:18;;;;;;;51.10;28.83;;;;;;;;;;4393151;32;20206;-91
2022/12/05 04:11:50;;;;;;;59.40;34.23;;;;;;;;;;4392253;32;20226;-83
2022/12/05 04:14:19;;;;;;;57.70;33.30;;;;;;;;;;4390591;32;20205;-81
2022/12/05 04:17:03;;;;;;;54.03;32.33;;;;;;;;;;4394965;32;20234;-83
2022/12/05 04:22:17;;;;;;;58.63;34.50;;;;;;;;;;4387765;32;20234;-82
2022/12/05 04:27:37;;;;;;;66.57;35.53;;;;;;;;;;4376869;32;20248;-80
2022/12/05 04:30:06;;;;;;;38.80;27.30;;;;;;;;;;4381095;32;20281;-96
2022/12/05 04:32:40;;;;;;;43.23;25.07;;;;;;;;;;4380489;32;20230;-81
2022/12/05 04:35:13;;;;;;;39.87;25.27;;;;;;;;;;4381996;32;20213;-81
2022/12/05 04:37:44;;;;;;;42.87;26.90;;;;;;;;;;4382130;32;20229;-90
2022/12/05 04:40:14;;;;;;;42.07;26.37;;;;;;;;;;4384293;32;20340;-82
2022/12/05 04:42:43;;;;;;;43.37;27.40;;;;;;;;;;4381714;32;20245;-81
2022/12/05 04:45:13;;;;;;;60.60;32.23;;;;;;;;;;4378664;32;20229;-90
2022/12/05 04:47:46;;;;;;;55.57;29.90;;;;;;;;;;4379902;32;20210;-82
2022/12/05 04:50:14;;;;;;;47.47;29.33;;;;;;;;;;4378043;32;20219;-82
2022/12/05 04:52:42;;;;;;;67.20;42.00;;;;;;;;;;4381250;32;20250;-83
2022/12/05 04:55:13;;;;;;;61.77;37.13;;;;;;;;;;4373257;32;20279;-82
2022/12/05 04:57:45;;;;;;;38.00;26.83;;;;;;;;;;4380810;32;20238;-95
2022/12/05 05:00:13;;;;;;;39.57;26.50;;;;;;;;;;4379608;32;20622;-87
2022/12/05 05:02:46;;;;;;;44.30;25.13;;;;;;;;;;4381316;32;20218;-82
2022/12/05 05:05:15;;;;;;;39.30;26.17;;;;;;;;;;4378989;32;20543;-80
2022/12/05 05:07:44;;;;;;;41.53;25.53;;;;;;;;;;4376721;32;20222;-93
2022/12/05 05:10:14;;;;;;;47.30;26.97;;;;;;;;;;4377942;32;20226;-81
2022/12/05 05:12:41;;;;;;;42.57;26.77;;;;;;;;;;4376605;32;20280;-81
2022/12/05 05:15:08;;;;;;;54.90;31.70;;;;;;;;;;4390103;32;20717;-96
2022/12/05 05:17:35;;;;;;;46.27;29.17;;;;;;;;;;4396687;32;20331;-82
2022/12/05 05:20:26;;;;;;;48.50;28.93;;;;;;;;;;4401454;27;20226;-84
2022/12/05 05:22:53;;;;;;;57.50;31.83;;;;;;;;;;4398941;27;20384;-87
2022/12/05 05:25:20;;;;;;;57.93;32.10;;;;;;;;;;4392824;32;20214;-81
2022/12/05 05:27:51;;;;;;;55.17;31.03;;;;;;;;;;4393169;32;20299;-84
2022/12/05 05:30:19;;;;;;;53.93;31.20;;;;;;;;;;4392973;32;20284;-93
2022/12/05 05:32:46;;;;;;;55.93;32.93;;;;;;;;;;4392042;32;20209;-92
2022/12/05 05:35:14;;;;;;;51.67;30.97;;;;;;;;;;4386844;32;20734;-80
2022/12/05 05:37:42;;;;;;;58.93;29.77;;;;;;;;;;4386988;32;20265;-82
2022/12/05 05:40:11;;;;;;;51.60;28.13;;;;;;;;;;4387234;32;20748;-85
2022/12/05 05:42:42;;;;;;;49.17;28.67;;;;;;;;;;4386954;32;20262;-90
2022/12/05 05:45:11;;;;;;;48.93;29.63;;;;;;;;;;4387342;32;20252;-90
2022/12/05 05:47:37;;;;;;;61.43;33.30;;;;;;;;;;4388164;32;20233;-83
2022/12/05 05:50:05;;;;;;;43.90;27.83;;;;;;;;;;4389475;32;20272;-80
2022/12/05 05:52:34;;;;;;;48.47;27.03;;;;;;;;;;4395210;32;20222;-90
2022/12/05 05:55:01;;;;;;;55.07;29.60;;;;;;;;;;4404671;32;20245;-80
2022/12/05 05:57:28;;;;;;;54.30;29.90;;;;;;;;;;4402872;32;20217;-80
2022/12/05 05:59:55;;;;;;;48.37;28.10;;;;;;;;;;4400323;32;20262;-96
2022/12/05 06:02:22;;;;;;;57.37;29.97;;;;;;;;;;4393945;32;20781;-80
2022/12/05 06:04:48;;;;;;;62.57;30.33;;;;;;;;;;4386360;32;20236;-81
2022/12/05 06:07:15;;;;;;;45.63;29.73;;;;;;;;;;4385954;32;20245;-94
2022/12/05 06:09:43;;;;;;;50.57;28.53;;;;;;;;;;4386107;32;20626;-81
2022/12/05 06:12:10;;;;;;;80.17;45.73;;;;;;;;;;4386595;32;20882;-83
2022/12/05 06:14:37;;;;;;;78.87;44.97;;;;;;;;;;4375240;32;20882;-82
2022/12/05 06:17:04;;;;;;;82.93;43.23;;;;;;;;;;4371773;32;20307;-84
2022/12/05 06:19:34;;;;;;;154.40;75.23;;;;;;;;;;4376391;32;20284;-81
2022/12/05 06:22:01;;;;;;;69.50;44.03;;;;;;;;;;4377324;32;20262;-82
2022/12/05 06:24:28;;;;;;;56.40;35.80;;;;;;;;;;4373018;32;20246;-80
2022/12/05 06:26:56;;;;;;;54.17;35.27;;;;;;;;;;4371599;32;20218;-82
2022/12/05 06:29:22;;;;;;;56.40;33.83;;;;;;;;;;4371223;32;20210;-83
2022/12/05 06:31:49;;;;;;;62.13;36.77;;;;;;;;;;4372032;32;20214;-83
2022/12/05 06:34:16;;;;;;;54.87;32.03;;;;;;;;;;4374271;32;20222;-80
2022/12/05 06:36:43;;;;;;;48.90;32.20;;;;;;;;;;4376820;32;20276;-80
2022/12/05 06:39:10;;;;;;;48.23;29.97;;;;;;;;;;4377971;32;20693;-78
2022/12/05 06:41:36;;;;;;;42.27;27.73;;;;;;;;;;4380469;32;20464;-83
2022/12/05 06:44:05;;;;;;;46.67;29.60;;;;;;;;;;4379763;32;20302;-81
2022/12/05 06:46:32;;;;;;;51.87;31.03;;;;;;;;;;4379470;32;20268;-81
2022/12/05 06:49:06;;;;;;;46.87;34.77;;;;;;;;;;4384071;32;20222;-82
2022/12/05 06:51:34;;;;;;;48.23;33.33;;;;;;;;;;4378044;32;20303;-80
2022/12/05 06:54:01;;;;;;;70.40;37.57;;;;;;;;;;4377883;32;20263;-93
2022/12/05 06:56:29;;;;;;;110.43;59.63;;;;;;;;;;4377144;32;20268;-89
2022/12/05 06:58:55;;;;;;;94.07;52.70;;;;;;;;;;4377106;32;20235;-91
2022/12/05 07:01:40;;;;;;;89.93;52.13;;;;;;;;;;4388143;32;20238;-89
2022/12/05 07:04:10;;;;;;;72.03;43.90;;;;;;;;;;4388159;32;20266;-83
2022/12/05 07:06:37;;;;;;;70.43;41.90;;;;;;;;;;4384422;32;20265;-80
2022/12/05 07:09:05;;;;;;;74.43;46.10;;;;;;;;;;4378675;32;20394;-90
2022/12/05 07:11:31;;;;;;;76.40;47.20;;;;;;;;;;4383346;32;20222;-83
2022/12/05 07:13:58;;;;;;;81.00;47.70;;;;;;;;;;4380070;32;20233;-83
2022/12/05 07:16:27;;;;;;;82.07;50.53;;;;;;;;;;4381654;32;20575;-83
2022/12/05 07:18:53;;;;;;;84.50;51.40;;;;;;;;;;4381965;32;20564;-80
2022/12/05 07:21:21;;;;;;;96.30;54.10;;;;;;;;;;4374269;32;20242;-79
2022/12/05 07:23:48;;;;;;;87.73;52.13;;;;;;;;;;4373760;32;20807;-84
2022/12/05 07:26:18;;;;;;;86.63;53.20;;;;;;;;;;4373715;32;20250;-80
2022/12/05 07:28:45;;;;;;;85.57;50.23;;;;;;;;;;4373067;32;20851;-81
2022/12/05 07:31:13;;;;;;;70.67;46.23;;;;;;;;;;4373592;32;20300;-83
2022/12/05 07:33:42;;;;;;;66.27;42.00;;;;;;;;;;4373154;32;20252;-81
2022/12/05 07:36:10;;;;;;;67.63;40.27;;;;;;;;;;4373400;32;20941;-80
2022/12/05 07:38:38;;;;;;;63.43;38.40;;;;;;;;;;4373363;32;20222;-87
2022/12/05 07:41:06;;;;;;;53.33;38.00;;;;;;;;;;4373365;32;20238;-85
2022/12/05 07:43:33;;;;;;;60.40;37.93;;;;;;;;;;4371725;32;20225;-80
2022/12/05 07:46:04;;;;;;;60.07;37.00;;;;;;;;;;4372701;32;20266;-85
2022/12/05 07:48:30;;;;;;;70.07;44.77;;;;;;;;;;4372611;32;20246;-79
2022/12/05 07:51:01;;;;;;;67.57;44.23;;;;;;;;;;4372714;32;20835;-81
2022/12/05 07:53:29;;;;;;;106.20;64.50;;;;;;;;;;4371993;32;20309;-85
2022/12/05 07:55:58;;;;;;;45.20;33.20;;;;;;;;;;4372670;32;20304;-80
2022/12/05 07:58:25;;;;;;;35.20;23.13;;;;;;;;;;4372295;32;20820;-79
2022/12/05 08:00:51;;;;;;;36.83;23.23;;;;;;;;;;4372692;32;20285;-79
2022/12/05 08:03:18;;;;;;;48.27;25.40;;;;;;;;;;4372231;32;20226;-82
2022/12/05 08:05:45;;;;;;;39.03;26.90;;;;;;;;;;4372953;32;20730;-83
2022/12/05 08:08:13;;;;;;;40.63;29.33;;;;;;;;;;4372588;32;20266;-82
2022/12/05 08:10:40;;;;;;;75.00;43.20;;;;;;;;;;4372826;32;20250;-84
2022/12/05 08:13:07;;;;;;;67.33;40.93;;;;;;;;;;4373269;32;20213;-81
2022/12/05 08:15:35;;;;;;;49.17;34.67;;;;;;;;;;4372517;32;20336;-82
2022/12/05 08:18:02;;;;;;;63.80;33.00;;;;;;;;;;4372520;32;20246;-81
2022/12/05 08:20:29;;;;;;;43.57;28.10;;;;;;;;;;4371867;32;20226;-85
2022/12/05 08:22:56;;;;;;;46.73;29.97;;;;;;;;;;4373632;32;20295;-84
2022/12/05 08:25:24;;;;;;;40.83;28.30;;;;;;;;;;4373523;32;20292;-85
2022/12/05 08:27:50;;;;;;;39.13;26.50;;;;;;;;;;4373993;32;20323;-87
2022/12/05 08:30:17;;;;;;;38.40;25.63;;;;;;;;;;4373743;32;20238;-83
2022/12/05 08:32:44;;;;;;;50.17;28.70;;;;;;;;;;4372616;32;20324;-89
2022/12/05 08:35:11;;;;;;;44.37;27.43;;;;;;;;;;4373257;32;20322;-81
2022/12/05 08:37:37;;;;;;;50.13;28.67;;;;;;;;;;4367722;32;20216;-85
2022/12/05 08:40:05;;;;;;;39.53;26.20;;;;;;;;;;4360817;32;20376;-83
2022/12/05 08:42:34;;;;;;;40.17;26.73;;;;;;;;;;4373636;32;20279;-84
2022/12/05 08:45:00;;;;;;;46.23;28.37;;;;;;;;;;4372049;32;20234;-89
2022/12/05 08:47:27;;;;;;;41.60;26.90;;;;;;;;;;4359051;32;20253;-84
2022/12/05 08:49:54;;;;;;;46.50;30.77;;;;;;;;;;4372375;32;20812;-82
2022/12/05 08:52:21;;;;;;;84.60;50.33;;;;;;;;;;4372138;32;20226;-84
2022/12/05 08:54:48;;;;;;;58.23;34.10;;;;;;;;;;4371233;32;20703;-85
2022/12/05 08:57:17;;;;;;;55.37;30.80;;;;;;;;;;4372426;32;20268;-82
2022/12/05 08:59:45;;;;;;;56.90;36.13;;;;;;;;;;4372398;32;20344;-83
2022/12/05 09:02:12;;;;;;;54.53;34.47;;;;;;;;;;4370052;32;20234;-85
2022/12/05 09:04:41;;;;;;;44.10;28.57;;;;;;;;;;4360932;32;20246;-82
2022/12/05 09:07:08;;;;;;;54.40;32.30;;;;;;;;;;4356865;32;20238;-80
2022/12/05 09:09:34;;;;;;;71.00;42.33;;;;;;;;;;4356656;32;20359;-87
2022/12/05 09:12:01;;;;;;;46.27;28.73;;;;;;;;;;4357500;32;20222;-86
2022/12/05 09:14:31;;;;;;;48.97;28.53;;;;;;;;;;4360105;32;20311;-85
2022/12/05 09:17:00;;;;;;;45.63;30.47;;;;;;;;;;4372021;32;20313;-84
2022/12/05 09:19:27;;;;;;;51.37;28.50;;;;;;;;;;4372149;32;20222;-83
2022/12/05 09:21:55;;;;;;;44.97;30.43;;;;;;;;;;4371243;32;20995;-83
2022/12/05 09:24:23;;;;;;;71.50;44.07;;;;;;;;;;4372000;32;20685;-90
2022/12/05 09:26:50;;;;;;;149.77;85.20;;;;;;;;;;4371420;32;20241;-87
2022/12/05 09:29:17;;;;;;;125.57;72.90;;;;;;;;;;4371795;32;20226;-84
2022/12/05 09:31:44;;;;;;;39.87;26.97;;;;;;;;;;4372239;32;20398;-82
2022/12/05 09:34:14;;;;;;;36.17;23.90;;;;;;;;;;4371509;32;20284;-82
2022/12/05 09:36:41;;;;;;;101.63;44.80;;;;;;;;;;4371911;32;20611;-82
2022/12/05 09:39:08;;;;;;;37.10;25.10;;;;;;;;;;4371589;32;20285;-80
2022/12/05 09:42:07;;;;;;;25.47;20.10;;;;;;;;;;4372041;32;20313;-86
2022/12/05 09:45:04;;;;;;;54.47;32.60;;;;;;;;;;4371652;32;20317;-87
2022/12/05 09:47:39;;;;;;;51.60;31.83;;;;;;;;;;4383380;32;20195;-85
2022/12/05 09:50:17;;;;;;;45.03;28.50;;;;;;;;;;4388265;32;20421;-78
2022/12/05 09:52:51;;;;;;;43.80;24.10;;;;;;;;;;4388313;32;20197;-80
2022/12/05 09:55:19;;;;;;;38.80;26.77;;;;;;;;;;4386981;32;20307;-80
2022/12/05 09:57:52;;;;;;;47.30;27.83;;;;;;;;;;4373817;32;20253;-84
2022/12/05 10:00:19;;;;;;;44.53;24.87;;;;;;;;;;4371668;32;20807;-81
2022/12/05 10:02:58;;;;;;;43.17;27.13;;;;;;;;;;4371739;32;20226;-87
2022/12/05 10:05:30;;;;;;;37.53;25.20;;;;;;;;;;4371908;32;20494;-81
2022/12/05 10:08:05;;;;;;;46.40;28.17;;;;;;;;;;4374017;32;20237;-81
2022/12/05 10:10:44;;;;;;;37.23;22.60;;;;;;;;;;4374826;32;20226;-80
2022/12/05 10:13:28;;;;;;;54.93;26.53;;;;;;;;;;4375086;32;20214;-80
2022/12/05 10:15:59;;;;;;;34.50;21.13;;;;;;;;;;4374502;32;20777;-81
2022/12/05 10:18:32;;;;;;;33.77;21.33;;;;;;;;;;4374322;32;20250;-83
2022/12/05 10:21:05;;;;;;;34.80;20.20;;;;;;;;;;4380537;32;20657;-80
2022/12/05 10:23:38;;;;;;;35.17;22.47;;;;;;;;;;4377796;32;20620;-84
2022/12/05 10:26:09;;;;;;;35.23;21.67;;;;;;;;;;4374357;32;20375;-81
2022/12/05 10:28:41;;;;;;;45.53;22.70;;;;;;;;;;4383263;32;20310;-81
2022/12/05 10:31:12;;;;;;;37.20;23.83;;;;;;;;;;4390096;32;20306;-81
2022/12/05 10:33:44;;;;;;;35.60;25.20;;;;;;;;;;4390067;32;20276;-82
2022/12/05 10:36:14;;;;;;;39.80;26.10;;;;;;;;;;4386054;32;20230;-84
2022/12/05 10:38:42;;;;;;;50.57;29.27;;;;;;;;;;4362161;32;20254;-82
2022/12/05 10:41:12;;;;;;;36.57;26.60;;;;;;;;;;4368098;32;20284;-81
2022/12/05 10:43:43;;;;;;;48.80;30.70;;;;;;;;;;4373853;32;20641;-79
2022/12/05 10:46:10;;;;;;;45.57;29.17;;;;;;;;;;4374604;32;20270;-82
2022/12/05 10:48:39;;;;;;;41.23;28.63;;;;;;;;;;4374121;32;20222;-80
2022/12/05 10:51:07;;;;;;;55.87;35.20;;;;;;;;;;4373891;32;20331;-83
2022/12/05 10:53:40;;;;;;;41.50;28.40;;;;;;;;;;4373558;32;20226;-81
2022/12/05 10:56:39;;;;;;;47.90;29.50;;;;;;;;;;4373853;32;20261;-80
2022/12/05 10:59:06;;;;;;;66.17;41.43;;;;;;;;;;4374332;32;20259;-81
2022/12/05 11:01:35;;;;;;;53.60;30.37;;;;;;;;;;4373336;32;20303;-83
2022/12/05 11:04:08;;;;;;;38.77;27.33;;;;;;;;;;4374046;32;20245;-83
2022/12/05 11:06:35;;;;;;;49.87;29.20;;;;;;;;;;4374042;32;20798;-82
2022/12/05 11:09:14;;;;;;;43.63;30.50;;;;;;;;;;4373786;32;20315;-86
2022/12/05 11:11:41;;;;;;;187.40;108.73;;;;;;;;;;4389302;32;20267;-81
2022/12/05 11:14:22;;;;;;;49.40;34.13;;;;;;;;;;4386650;32;20275;-81
2022/12/05 11:16:54;;;;;;;48.60;34.20;;;;;;;;;;4374054;32;20263;-83
2022/12/05 11:19:26;;;;;;;44.60;31.60;;;;;;;;;;4358214;32;20234;-83
2022/12/05 11:21:54;;;;;;;45.97;32.70;;;;;;;;;;4360370;32;20214;-82
2022/12/05 11:24:27;;;;;;;65.40;41.47;;;;;;;;;;4373292;32;20295;-80
2022/12/05 11:26:53;;;;;;;39.17;28.67;;;;;;;;;;4373986;32;20250;-79
2022/12/05 11:29:33;;;;;;;46.13;29.87;;;;;;;;;;4373829;32;20717;-82
2022/12/05 11:32:00;;;;;;;41.63;28.67;;;;;;;;;;4374111;32;20242;-84
2022/12/05 11:34:35;;;;;;;34.27;25.67;;;;;;;;;;4373289;32;20322;-80
2022/12/05 11:37:10;;;;;;;35.17;25.20;;;;;;;;;;4372692;32;20274;-84
2022/12/05 11:39:39;;;;;;;52.03;28.77;;;;;;;;;;4373605;32;21105;-83
2022/12/05 11:42:17;;;;;;;41.50;28.70;;;;;;;;;;4373171;32;20813;-83
2022/12/05 11:45:14;;;;;;;43.37;31.13;;;;;;;;;;4373273;32;20287;-85
2022/12/05 11:48:04;;;;;;;46.67;29.30;;;;;;;;;;4340891;32;20667;-86
2022/12/05 11:50:41;;;;;;;35.70;25.33;;;;;;;;;;4373013;32;20214;-85
2022/12/05 11:53:25;;;;;;;41.53;26.63;;;;;;;;;;4372625;32;20256;-82
2022/12/05 11:56:03;;;;;;;44.23;27.13;;;;;;;;;;4372525;32;20670;-83
2022/12/05 11:58:54;;;;;;;42.40;24.03;;;;;;;;;;4371593;32;20679;-83
2022/12/05 12:01:32;;;;;;;31.20;23.47;;;;;;;;;;4373150;32;20230;-82
2022/12/05 12:04:39;;;;;;;30.93;23.30;;;;;;;;;;4372487;32;20283;-83
2022/12/05 12:07:29;;;;;;;34.20;23.23;;;;;;;;;;4340534;32;20379;-84
2022/12/05 12:10:06;;;;;;;35.43;24.17;;;;;;;;;;4355926;32;20680;-82
2022/12/05 12:12:46;;;;;;;28.00;20.73;;;;;;;;;;4357886;32;20272;-83
2022/12/05 12:15:42;;;;;;;32.60;21.50;;;;;;;;;;4371449;32;20606;-85
2022/12/05 12:18:19;;;;;;;24.67;18.10;;;;;;;;;;4372872;32;20272;-83
2022/12/05 12:21:00;;;;;;;25.50;19.20;;;;;;;;;;4373196;32;20289;-82
2022/12/05 12:23:39;;;;;;;31.97;16.00;;;;;;;;;;4373030;32;20230;-87
2022/12/05 12:26:12;;;;;;;24.67;16.90;;;;;;;;;;4373152;32;20210;-82
2022/12/05 12:28:46;;;;;;;30.53;19.37;;;;;;;;;;4373094;32;20242;-84
2022/12/05 12:31:36;;;;;;;36.90;21.67;;;;;;;;;;4373544;32;20221;-83
2022/12/05 12:34:17;;;;;;;54.00;23.30;;;;;;;;;;4373138;32;20234;-82
2022/12/05 12:36:48;;;;;;;42.20;20.07;;;;;;;;;;4378868;32;20327;-83
2022/12/05 12:39:34;;;;;;;29.33;19.03;;;;;;;;;;4358166;32;20321;-84
2022/12/05 12:42:13;;;;;;;24.90;17.70;;;;;;;;;;4372291;32;20276;-82
2022/12/05 12:45:07;;;;;;;29.97;17.93;;;;;;;;;;4371939;32;20328;-83
2022/12/05 12:47:45;;;;;;;32.30;18.77;;;;;;;;;;4370634;32;20238;-83
2022/12/05 12:50:17;;;;;;;33.10;21.07;;;;;;;;;;4372765;32;20293;-86
2022/12/05 12:52:59;;;;;;;24.03;17.50;;;;;;;;;;4372967;32;20288;-84
2022/12/05 12:55:36;;;;;;;25.00;18.57;;;;;;;;;;4373033;32;20320;-84
2022/12/05 12:58:13;;;;;;;31.30;23.03;;;;;;;;;;4373228;32;20283;-87
2022/12/05 13:00:53;;;;;;;31.00;20.47;;;;;;;;;;4377974;32;20253;-84
2022/12/05 13:03:24;;;;;;;28.00;18.07;;;;;;;;;;4388112;32;20249;-83
2022/12/05 13:05:56;;;;;;;20.13;17.40;;;;;;;;;;4377776;32;20241;-80
2022/12/05 13:08:28;;;;;;;23.13;16.83;;;;;;;;;;4373225;32;20238;-82
2022/12/05 13:10:58;;;;;;;26.80;18.37;;;;;;;;;;4373117;32;20784;-82
2022/12/05 13:13:32;;;;;;;29.23;16.33;;;;;;;;;;4372595;32;20250;-85
2022/12/05 13:16:02;;;;;;;27.27;18.17;;;;;;;;;;4372585;32;20240;-83
2022/12/05 13:18:28;;;;;;;20.20;14.07;;;;;;;;;;4372384;32;20288;-84
2022/12/05 13:20:57;;;;;;;25.63;16.47;;;;;;;;;;4372737;32;20218;-82
2022/12/05 13:23:28;;;;;;;22.43;15.63;;;;;;;;;;4373096;32;20238;-87
2022/12/05 13:25:57;;;;;;;23.37;15.93;;;;;;;;;;4373080;32;20272;-79
2022/12/05 13:28:29;;;;;;;31.33;15.73;;;;;;;;;;4373504;32;20286;-83
2022/12/05 13:31:00;;;;;;;27.03;18.53;;;;;;;;;;4373124;32;20312;-85
2022/12/05 13:33:31;;;;;;;28.07;18.87;;;;;;;;;;4372504;32;20421;-83
2022/12/05 13:44:32;;;;;;;30.97;18.00;;;;;;;;;;4388441;32;20242;-86
2022/12/05 13:47:00;;;;;;;27.37;17.83;;;;;;;;;;4383374;32;20218;-86
2022/12/05 13:49:35;;;;;;;25.50;19.20;;;;;;;;;;4378413;32;20336;-86
2022/12/05 13:52:08;;;;;;;32.70;19.33;;;;;;;;;;4373947;32;20271;-79
2022/12/05 13:54:43;;;;;;;31.97;19.67;;;;;;;;;;4388882;32;20699;-82
2022/12/05 13:57:46;;;;;;;33.50;22.03;;;;;;;;;;4388449;32;20229;-85
2022/12/05 14:00:42;;;;;;;30.03;19.60;;;;;;;;;;4375623;32;20275;-81
2022/12/05 14:03:18;;;;;;;35.17;21.53;;;;;;;;;;4372631;32;20218;-83
2022/12/05 14:05:52;;;;;;;27.93;18.17;;;;;;;;;;4372360;32;20697;-83
2022/12/05 14:08:53;;;;;;;31.20;19.60;;;;;;;;;;4366639;32;20218;-81
2022/12/05 14:11:19;;;;;;;29.13;19.60;;;;;;;;;;4366408;32;20710;-80
2022/12/05 14:13:46;;;;;;;31.17;20.10;;;;;;;;;;4372188;32;20363;-81
2022/12/05 14:16:44;;;;;;;32.50;18.63;;;;;;;;;;4372325;32;20776;-85
2022/12/05 14:19:33;;;;;;;23.40;17.30;;;;;;;;;;4311191;33;20282;-79
2022/12/05 14:22:15;;;;;;;29.60;22.70;;;;;;;;;;4361490;32;20330;-79
2022/12/05 14:24:54;;;;;;;32.87;22.57;;;;;;;;;;4372142;32;20221;-79
2022/12/05 14:27:31;;;;;;;26.77;20.93;;;;;;;;;;4372418;32;20219;-85
2022/12/05 14:30:04;;;;;;;34.73;19.60;;;;;;;;;;4372566;32;20226;-80
2022/12/05 14:32:33;;;;;;;39.40;23.17;;;;;;;;;;4372354;32;20218;-85
2022/12/05 14:35:11;;;;;;;37.67;24.60;;;;;;;;;;4372760;32;20724;-79
2022/12/05 14:37:41;;;;;;;34.07;24.60;;;;;;;;;;4366899;32;20279;-79
2022/12/05 14:40:20;;;;;;;45.43;23.17;;;;;;;;;;4359851;32;21055;-85
2022/12/05 14:42:54;;;;;;;36.63;21.27;;;;;;;;;;4372249;32;20237;-81
2022/12/05 14:45:31;;;;;;;33.47;21.47;;;;;;;;;;4373486;32;20226;-85
2022/12/05 14:47:59;;;;;;;31.83;22.93;;;;;;;;;;4373638;32;20279;-82
2022/12/05 14:50:42;;;;;;;37.67;22.43;;;;;;;;;;4373856;32;20321;-83
2022/12/05 14:53:24;;;;;;;66.83;36.23;;;;;;;;;;4375330;32;20275;-81
2022/12/05 14:55:55;;;;;;;59.43;32.30;;;;;;;;;;4375540;32;20234;-80